EICKEIKY

Guest
Details From EICK - Cork
To EIKY - Kerry
Flight Number -
Tags generated
Created
Modified
Stats Distance 44 nm / 81 km
Max Altitude 0 ft / 0 m
Waypoints 3
Social Downloads 2
Likes 0
Share VATSIM

Download

Looking for another format? Having issues loading an existing format? Contact us
Advertisement - Login to hide

Notes

Basic altitude profile: - Ascent Rate: 2500ft/min - Ascent Speed: 250kts - Cruise Altitude: 35000ft - Cruise Speed: 420kts - Descent Rate: 1500ft/min - Descent Speed: 250kts Options: - Use NATs: yes - Use PACOTS: yes - Use low airways: yes - Use high airways: yes

Route

EICK CRK EIKY

ID Type Via Altitude Latitude Longitude Leg Dist Tot Dist Heading (true) Name
O EICK APT - 0 ft / 0 m 51.84261˚ -8.48906˚ - 0 nm - Cork
CRK VOR - 0 ft / 0 m 51.84061˚ -8.49427˚ 0 nm 0 nm 238° / 238° CORK VOR-DME
O EIKY APT - 0 ft / 0 m 52.18132˚ -9.52760˚ 43 nm 43 nm 299° / 298° Kerry

Altitude Profile

Advertisement - Login to hide

EICK

Details ICAO EICK (ORK)
Name Cork
Region Ireland
Timezone Europe/Dublin (UTC+0.0)
Stats Elevation 502 ft / 153 m (AMSL)
Location 51.842605° -8.489056°
Runways 2
Magnetic Variation 3.613° W

METAR

EICK 110600Z 33017KT 9999 BKN008 01/00 Q0989 NOSIG

Decode

TAF

TAF EICK 110500Z 1106/1206 33015KT 9999 SCT012 SCT030 TEMPO 1106/1109 SCT004 BKN006 TEMPO 1113/1119 34017G28KT BECMG 1200/1202 30006KT BECMG 1204/1206 24005KT

Decode

Departure Runways

ID Width Length Bearing (true) Bearing (mag) Surface Threshold Offset Overrun Length
07 148 ft / 45 m 4,281 ft / 1,305 m 62.55° 66.16° Concrete 0 ft / 0 m 0 ft / 0 m
17 148 ft / 45 m 6,992 ft / 2,131 m 159.93° 163.54° Asphalt 0 ft / 0 m 115 ft / 35 m
25 148 ft / 45 m 4,281 ft / 1,305 m 242.57° 246.18° Concrete 0 ft / 0 m 39 ft / 12 m
35 148 ft / 45 m 6,992 ft / 2,131 m 339.94° 343.55° Asphalt 0 ft / 0 m 0 ft / 0 m

EIKY

Details ICAO EIKY (KIR)
Name Kerry
Region Ireland
Timezone Europe/Dublin (UTC+0.0)
Stats Elevation 111 ft / 34 m (AMSL)
Location 52.181322° -9.527600°
Runways 2
Magnetic Variation 4.094° W

METAR

EIKY 110600Z 24006KT 9999 SCT033 00/M01 Q0992

Decode

TAF

Not found

Destination Runways

ID Width Length Bearing (true) Bearing (mag) Surface Threshold Offset Overrun Length
05 100 ft / 30 m 4,063 ft / 1,239 m 58.12° 62.21° Concrete 0 ft / 0 m 0 ft / 0 m
08 148 ft / 45 m 6,545 ft / 1,995 m 71.19° 75.28° Asphalt 0 ft / 0 m 0 ft / 0 m
23 100 ft / 30 m 4,063 ft / 1,239 m 238.13° 242.22° Concrete 0 ft / 0 m 0 ft / 0 m
26 148 ft / 45 m 6,545 ft / 1,995 m 251.21° 255.30° Asphalt 0 ft / 0 m 0 ft / 0 m

Approach Navaids

Runway Type Ident Frequency Range Bearing (true) Bearing (mag) Slope Elevation
26 Localiser IKR 108.70 MHz 18 nm / 33 km 251.18° 255.28° - 82 ft / 25 m (AMSL)
26 Glidescope IKR 108.70 MHz 10 nm / 19 km 251.20° 255.29° 3.00° 44 ft / 13 m (AMSL)
26 DME IKR 108.70 MHz 18 nm / 33 km - - - 113 ft / 34 m (AMSL)

Popular Alternatives